Wetterdaten: Woche 16.01.17 - 22.01.17 (KW3)
Datum Zeit Temp. A. Feuchte A. Luftdruck Regen Wind Richtung Taupunkt Windchill Windben
16.01.2017 00:00 -1,0 C 72 % 1020,5 hPa 0,0 l/m 0,4 km/h N -5,3 C -1,0 C 6,4 km/h
16.01.2017 01:00 -1,7 C 75 % 1020,5 hPa 0,0 l/m 0,4 km/h N -5,5 C -1,7 C 5,6 km/h
16.01.2017 02:00 -1,9 C 76 % 1020,6 hPa 0,0 l/m 0,5 km/h N -5,5 C -1,9 C 3,2 km/h
16.01.2017 03:00 -3,0 C 77 % 1020,5 hPa 0,0 l/m 0,1 km/h N -6,4 C -3,0 C 1,2 km/h
16.01.2017 04:00 -3,6 C 79 % 1020,4 hPa 0,0 l/m 0,0 km/h N -6,7 C -3,6 C 0,8 km/h
16.01.2017 05:00 -4,8 C 79 % 1020,7 hPa 0,0 l/m 0,0 km/h N -7,8 C -4,8 C 0,4 km/h
16.01.2017 06:00 -5,5 C 81 % 1020,8 hPa 0,0 l/m 0,0 km/h N -8,3 C -5,5 C 0,0 km/h
16.01.2017 07:00 -5,7 C 82 % 1021,3 hPa 0,0 l/m 0,0 km/h N -8,3 C -5,7 C 0,0 km/h
16.01.2017 08:00 -5,8 C 83 % 1021,7 hPa 0,0 l/m 0,0 km/h N -8,2 C -5,8 C 0,0 km/h
16.01.2017 09:00 -3,4 C 84 % 1021,8 hPa 0,0 l/m 1,0 km/h N -5,7 C -3,4 C 2,8 km/h
16.01.2017 10:00 -1,1 C 81 % 1022,0 hPa 0,0 l/m 2,1 km/h N -4,0 C -1,1 C 8,4 km/h
16.01.2017 11:00 -0,7 C 78 % 1021,8 hPa 0,0 l/m 4,8 km/h N -4,1 C -0,7 C 14,9 km/h
16.01.2017 12:00 -0,3 C 75 % 1021,6 hPa 0,0 l/m 5,9 km/h N -4,2 C -0,5 C 16,1 km/h
16.01.2017 13:00 -0,6 C 75 % 1021,7 hPa 0,0 l/m 3,8 km/h N -4,5 C -0,6 C 10,1 km/h
16.01.2017 14:00 -0,4 C 73 % 1021,8 hPa 0,0 l/m 3,9 km/h N -4,6 C -0,4 C 13,3 km/h
16.01.2017 15:00 -0,6 C 72 % 1022,3 hPa 0,0 l/m 1,5 km/h N -5,0 C -0,6 C 8,5 km/h
16.01.2017 16:00 -0,9 C 72 % 1022,7 hPa 0,0 l/m 2,2 km/h N -5,3 C -0,9 C 8,4 km/h
16.01.2017 17:00 -1,6 C 75 % 1023,0 hPa 0,0 l/m 1,2 km/h N -5,5 C -1,6 C 6,8 km/h
16.01.2017 18:00 -1,9 C 77 % 1023,5 hPa 0,0 l/m 0,8 km/h N -5,4 C -1,9 C 6,0 km/h
16.01.2017 19:00 -2,0 C 78 % 1024,0 hPa 0,0 l/m 1,6 km/h N -5,3 C -2,0 C 8,8 km/h
16.01.2017 20:00 -2,0 C 79 % 1024,6 hPa 0,0 l/m 2,0 km/h N -5,1 C -2,0 C 8,4 km/h
16.01.2017 21:00 -1,9 C 79 % 1024,8 hPa 0,0 l/m 2,5 km/h N -5,0 C -1,9 C 9,7 km/h
16.01.2017 22:00 -2,2 C 79 % 1025,3 hPa 0,0 l/m 1,7 km/h N -5,3 C -2,2 C 8,4 km/h
16.01.2017 23:00 -2,4 C 79 % 1025,4 hPa 0,0 l/m 2,9 km/h N -5,6 C -2,4 C 10,9 km/h
17.01.2017 00:00 -2,8 C 80 % 1025,8 hPa 0,0 l/m 2,1 km/h N -5,9 C -2,8 C 9,3 km/h
17.01.2017 01:00 -3,1 C 80 % 1026,3 hPa 0,0 l/m 2,0 km/h N -6,0 C -3,1 C 8,4 km/h
17.01.2017 02:00 -3,1 C 81 % 1026,5 hPa 0,0 l/m 5,1 km/h N -5,9 C -3,1 C 12,1 km/h
17.01.2017 03:00 -3,0 C 81 % 1026,7 hPa 0,0 l/m 5,1 km/h N -5,8 C -3,0 C 13,7 km/h
17.01.2017 04:00 -2,8 C 80 % 1026,9 hPa 0,0 l/m 4,2 km/h N -5,7 C -2,8 C 16,1 km/h
17.01.2017 05:00 -2,7 C 80 % 1027,2 hPa 0,0 l/m 5,2 km/h N -5,6 C -2,7 C 12,9 km/h
17.01.2017 06:00 -2,7 C 80 % 1027,8 hPa 0,0 l/m 5,4 km/h N -5,6 C -2,7 C 15,3 km/h
17.01.2017 07:00 -2,4 C 79 % 1028,5 hPa 0,0 l/m 6,5 km/h N -5,5 C -2,5 C 18,5 km/h
17.01.2017 08:00 -2,2 C 78 % 1029,3 hPa 0,0 l/m 6,5 km/h N -5,6 C -2,6 C 16,1 km/h
17.01.2017 09:00 -2,2 C 76 % 1029,7 hPa 0,0 l/m 6,8 km/h N -5,8 C -2,9 C 18,5 km/h
17.01.2017 10:00 -2,1 C 74 % 1030,2 hPa 0,0 l/m 7,7 km/h N -6,0 C -3,5 C 19,7 km/h
17.01.2017 11:00 -1,8 C 73 % 1030,4 hPa 0,0 l/m 7,9 km/h N -6,0 C -3,5 C 19,3 km/h
17.01.2017 12:00 -1,7 C 72 % 1030,4 hPa 0,0 l/m 7,3 km/h N -6,0 C -2,6 C 19,7 km/h
17.01.2017 13:00 -1,5 C 72 % 1030,4 hPa 0,0 l/m 6,8 km/h N -5,8 C -2,0 C 22,9 km/h
17.01.2017 14:00 -1,1 C 71 % 1030,6 hPa 0,0 l/m 6,6 km/h N -5,7 C -1,7 C 19,7 km/h
17.01.2017 15:00 -1,0 C 72 % 1030,8 hPa 0,0 l/m 6,4 km/h N -5,4 C -1,3 C 16,5 km/h
17.01.2017 16:00 -0,9 C 72 % 1031,2 hPa 0,0 l/m 5,7 km/h N -5,3 C -0,9 C 16,5 km/h
17.01.2017 17:00 -1,0 C 72 % 1031,7 hPa 0,0 l/m 6,1 km/h N -5,5 C -1,2 C 17,7 km/h
17.01.2017 18:00 -1,2 C 72 % 1032,3 hPa 0,0 l/m 7,3 km/h N -5,7 C -2,2 C 19,7 km/h
17.01.2017 19:00 -1,3 C 71 % 1032,7 hPa 0,0 l/m 7,9 km/h N -5,9 C -2,9 C 20,5 km/h
17.01.2017 20:00 -1,5 C 71 % 1033,2 hPa 0,0 l/m 7,0 km/h N -6,2 C -2,3 C 20,1 km/h
17.01.2017 21:00 -1,8 C 72 % 1033,6 hPa 0,0 l/m 6,8 km/h N -6,3 C -2,4 C 18,5 km/h
17.01.2017 22:00 -1,9 C 71 % 1033,8 hPa 0,0 l/m 6,9 km/h N -6,3 C -2,4 C 18,9 km/h
17.01.2017 23:00 -1,9 C 71 % 1033,8 hPa 0,0 l/m 6,7 km/h N -6,5 C -2,5 C 18,9 km/h
18.01.2017 00:00 -1,9 C 70 % 1034,0 hPa 0,0 l/m 6,8 km/h N -6,6 C -2,4 C 20,5 km/h
18.01.2017 01:00 -1,9 C 70 % 1034,2 hPa 0,0 l/m 6,8 km/h N -6,6 C -2,4 C 19,3 km/h
18.01.2017 02:00 -2,0 C 70 % 1034,4 hPa 0,0 l/m 6,9 km/h N -6,7 C -2,6 C 22,1 km/h
18.01.2017 03:00 -2,1 C 71 % 1034,4 hPa 0,0 l/m 5,7 km/h N -6,7 C -2,2 C 18,1 km/h
18.01.2017 04:00 -2,3 C 72 % 1034,3 hPa 0,0 l/m 5,9 km/h N -6,6 C -2,4 C 17,3 km/h
18.01.2017 05:00 -2,3 C 72 % 1034,3 hPa 0,0 l/m 7,8 km/h N -6,6 C -3,8 C 20,5 km/h
18.01.2017 06:00 -2,5 C 72 % 1034,7 hPa 0,0 l/m 7,3 km/h N -6,9 C -3,6 C 20,1 km/h
18.01.2017 07:00 -2,9 C 73 % 1035,3 hPa 0,0 l/m 5,5 km/h N -7,1 C -3,0 C 15,7 km/h
18.01.2017 08:00 -3,1 C 73 % 1036,0 hPa 0,0 l/m 4,4 km/h N -7,3 C -3,1 C 16,1 km/h
18.01.2017 09:00 -3,2 C 73 % 1036,4 hPa 0,0 l/m 5,3 km/h N -7,3 C -3,2 C 14,9 km/h
18.01.2017 10:00 -2,9 C 72 % 1036,6 hPa 0,0 l/m 5,1 km/h N -7,2 C -2,9 C 14,1 km/h
18.01.2017 11:00 -2,6 C 71 % 1036,5 hPa 0,0 l/m 6,0 km/h N -7,2 C -2,9 C 14,9 km/h
18.01.2017 12:00 -2,4 C 69 % 1036,4 hPa 0,0 l/m 6,4 km/h N -7,3 C -2,9 C 16,9 km/h
18.01.2017 13:00 -2,2 C 69 % 1036,1 hPa 0,0 l/m 5,7 km/h N -7,1 C -2,2 C 16,1 km/h
18.01.2017 14:00 -2,3 C 68 % 1036,1 hPa 0,0 l/m 6,3 km/h N -7,3 C -2,6 C 16,9 km/h
18.01.2017 15:00 -2,5 C 69 % 1036,3 hPa 0,0 l/m 5,0 km/h N -7,3 C -2,5 C 14,9 km/h
18.01.2017 16:00 -2,8 C 70 % 1036,4 hPa 0,0 l/m 2,8 km/h N -7,5 C -2,8 C 12,5 km/h
18.01.2017 17:00 -3,5 C 72 % 1036,6 hPa 0,0 l/m 0,7 km/h N -7,8 C -3,5 C 5,2 km/h
18.01.2017 18:00 -4,2 C 75 % 1037,1 hPa 0,0 l/m 0,2 km/h N -7,9 C -4,2 C 3,6 km/h
18.01.2017 19:00 -4,6 C 77 % 1037,6 hPa 0,0 l/m 0,2 km/h N -8,1 C -4,6 C 2,8 km/h
18.01.2017 20:00 -5,2 C 79 % 1037,9 hPa 0,0 l/m 0,6 km/h N -8,2 C -5,2 C 4,8 km/h
18.01.2017 21:00 -4,9 C 79 % 1037,9 hPa 0,0 l/m 2,9 km/h N -8,0 C -4,9 C 8,4 km/h
18.01.2017 22:00 -5,2 C 79 % 1038,0 hPa 0,0 l/m 3,9 km/h N -8,2 C -5,2 C 12,1 km/h
18.01.2017 23:00 -5,9 C 80 % 1037,6 hPa 0,0 l/m 2,5 km/h N -8,9 C -5,9 C 8,4 km/h
19.01.2017 00:00 -6,5 C 81 % 1037,8 hPa 0,0 l/m 2,3 km/h N -9,3 C -6,5 C 7,6 km/h
19.01.2017 01:00 -7,0 C 81 % 1037,9 hPa 0,0 l/m 1,3 km/h N -9,7 C -7,0 C 6,0 km/h
19.01.2017 02:00 -7,4 C 81 % 1038,1 hPa 0,0 l/m 0,3 km/h N -10,0 C -7,4 C 2,8 km/h
19.01.2017 03:00 -7,7 C 82 % 1038,2 hPa 0,0 l/m 0,3 km/h N -10,2 C -7,7 C 3,2 km/h
19.01.2017 04:00 -7,9 C 82 % 1038,3 hPa 0,0 l/m 0,1 km/h N -10,4 C -7,9 C 2,4 km/h
19.01.2017 05:00 -8,5 C 82 % 1038,3 hPa 0,0 l/m 0,0 km/h N -11,0 C -8,5 C 0,8 km/h
19.01.2017 06:00 -8,7 C 83 % 1038,4 hPa 0,0 l/m 0,9 km/h N -11,1 C -8,7 C 5,6 km/h
19.01.2017 07:00 -8,9 C 83 % 1038,6 hPa 0,0 l/m 0,6 km/h N -11,2 C -8,9 C 2,8 km/h
19.01.2017 08:00 -9,1 C 83 % 1039,1 hPa 0,0 l/m 0,1 km/h N -11,5 C -9,1 C 1,1 km/h
19.01.2017 09:00 -7,9 C 83 % 1039,2 hPa 0,0 l/m 0,4 km/h N -10,2 C -7,9 C 3,6 km/h
19.01.2017 10:00 -6,5 C 82 % 1039,3 hPa 0,0 l/m 4,4 km/h N -9,0 C -6,5 C 9,7 km/h
19.01.2017 11:00 -5,6 C 80 % 1038,9 hPa 0,0 l/m 2,8 km/h N -8,4 C -5,6 C 7,6 km/h
19.01.2017 12:00 -4,3 C 76 % 1038,2 hPa 0,0 l/m 1,1 km/h N -7,9 C -4,3 C 7,2 km/h
19.01.2017 13:00 -3,1 C 71 % 1037,8 hPa 0,0 l/m 0,6 km/h N -7,6 C -3,1 C 6,0 km/h
19.01.2017 14:00 -2,3 C 69 % 1037,6 hPa 0,0 l/m 0,3 km/h N -7,2 C -2,3 C 4,4 km/h
19.01.2017 15:00 -1,9 C 66 % 1037,6 hPa 0,0 l/m 0,0 km/h N -7,3 C -1,9 C 1,6 km/h
19.01.2017 16:00 -2,8 C 67 % 1037,6 hPa 0,0 l/m 0,0 km/h N -8,1 C -2,8 C 0,4 km/h
19.01.2017 17:00 -4,6 C 69 % 1037,8 hPa 0,0 l/m 0,0 km/h N -9,4 C -4,6 C 0,0 km/h
19.01.2017 18:00 -6,3 C 73 % 1038,1 hPa 0,0 l/m 0,0 km/h N -10,3 C -6,3 C 0,0 km/h
19.01.2017 19:00 -7,3 C 78 % 1038,4 hPa 0,0 l/m 0,0 km/h N -10,5 C -7,3 C 0,0 km/h
19.01.2017 20:00 -7,8 C 79 % 1038,4 hPa 0,0 l/m 0,0 km/h N -10,9 C -7,8 C 0,0 km/h
19.01.2017 21:00 -8,4 C 80 % 1038,6 hPa 0,0 l/m 0,0 km/h N -11,2 C -8,4 C 0,0 km/h
19.01.2017 22:00 -8,7 C 82 % 1038,8 hPa 0,0 l/m 0,0 km/h N -11,3 C -8,7 C 0,0 km/h
19.01.2017 23:00 -9,1 C 82 % 1038,9 hPa 0,0 l/m 0,0 km/h N -11,5 C -9,1 C 0,0 km/h
20.01.2017 00:00 -9,6 C 83 % 1038,8 hPa 0,0 l/m 0,0 km/h N -11,9 C -9,6 C 0,4 km/h
20.01.2017 01:00 -9,6 C 83 % 1038,4 hPa 0,0 l/m 0,0 km/h N -11,9 C -9,6 C 0,0 km/h
20.01.2017 02:00 -9,8 C 83 % 1038,4 hPa 0,0 l/m 0,0 km/h N -12,1 C -9,8 C 0,4 km/h
20.01.2017 03:00 -10,3 C 83 % 1038,2 hPa 0,0 l/m 0,0 km/h N -12,6 C -10,3 C 0,0 km/h
20.01.2017 04:00 -10,6 C 83 % 1038,3 hPa 0,0 l/m 0,0 km/h N -12,9 C -10,6 C 0,0 km/h
20.01.2017 05:00 -10,9 C 83 % 1038,2 hPa 0,0 l/m 0,0 km/h N -13,2 C -10,9 C 0,0 km/h
20.01.2017 06:00 -11,2 C 85 % 1038,3 hPa 0,0 l/m 0,0 km/h N -13,2 C -11,2 C 0,0 km/h
20.01.2017 07:00 -11,6 C 83 % 1038,6 hPa 0,0 l/m 0,0 km/h N -13,9 C -11,6 C 0,0 km/h
20.01.2017 08:00 -11,6 C 84 % 1039,0 hPa 0,0 l/m 0,0 km/h N -13,9 C -11,6 C 0,0 km/h
20.01.2017 09:00 -10,3 C 84 % 1039,0 hPa 0,0 l/m 0,0 km/h N -12,4 C -10,3 C 0,4 km/h
20.01.2017 10:00 -8,2 C 84 % 1038,7 hPa 0,0 l/m 0,1 km/h N -10,4 C -8,2 C 1,6 km/h
20.01.2017 11:00 -6,7 C 84 % 1038,1 hPa 0,0 l/m 0,1 km/h N -8,9 C -6,7 C 3,6 km/h
20.01.2017 12:00 -5,2 C 84 % 1037,5 hPa 0,0 l/m 0,1 km/h N -7,5 C -5,2 C 2,8 km/h
20.01.2017 13:00 -4,0 C 82 % 1036,8 hPa 0,0 l/m 0,1 km/h N -6,5 C -4,0 C 3,6 km/h
20.01.2017 14:00 -3,0 C 79 % 1036,4 hPa 0,0 l/m 0,0 km/h N -6,1 C -3,0 C 2,4 km/h
20.01.2017 15:00 -2,6 C 75 % 1036,3 hPa 0,0 l/m 0,0 km/h N -6,4 C -2,6 C 0,8 km/h
20.01.2017 16:00 -3,3 C 74 % 1036,3 hPa 0,0 l/m 0,0 km/h N -7,3 C -3,3 C 0,0 km/h
20.01.2017 17:00 -4,9 C 74 % 1036,3 hPa 0,0 l/m 0,0 km/h N -8,9 C -4,9 C 0,0 km/h
20.01.2017 18:00 -6,4 C 76 % 1036,3 hPa 0,0 l/m 0,0 km/h N -9,9 C -6,4 C 0,0 km/h
20.01.2017 19:00 -7,6 C 78 % 1036,3 hPa 0,0 l/m 0,0 km/h N -10,7 C -7,6 C 0,0 km/h
20.01.2017 20:00 -8,5 C 79 % 1036,2 hPa 0,0 l/m 0,0 km/h N -11,5 C -8,5 C 0,0 km/h
20.01.2017 21:00 -9,3 C 81 % 1036,1 hPa 0,0 l/m 0,0 km/h N -12,0 C -9,3 C 0,0 km/h
20.01.2017 22:00 -9,7 C 82 % 1036,1 hPa 0,0 l/m 0,0 km/h N -12,3 C -9,7 C 0,0 km/h
20.01.2017 23:00 -10,1 C 82 % 1036,1 hPa 0,0 l/m 0,0 km/h N -12,6 C -10,1 C 0,0 km/h
21.01.2017 00:00 -10,5 C 83 % 1035,7 hPa 0,0 l/m 0,0 km/h N -12,8 C -10,5 C 0,0 km/h
21.01.2017 01:00 -10,3 C 83 % 1034,9 hPa 0,0 l/m 0,0 km/h N -12,6 C -10,3 C 0,0 km/h
21.01.2017 02:00 -10,5 C 84 % 1034,8 hPa 0,0 l/m 0,0 km/h N -12,7 C -10,5 C 0,0 km/h
21.01.2017 03:00 -10,9 C 84 % 1034,8 hPa 0,0 l/m 0,0 km/h N -13,1 C -10,9 C 0,0 km/h
21.01.2017 04:00 -11,3 C 84 % 1034,7 hPa 0,0 l/m 0,0 km/h N -13,5 C -11,3 C 0,0 km/h
21.01.2017 05:00 -11,4 C 84 % 1034,5 hPa 0,0 l/m 0,0 km/h N -13,5 C -11,4 C 0,0 km/h
21.01.2017 06:00 -11,3 C 84 % 1034,9 hPa 0,0 l/m 0,0 km/h N -13,5 C -11,3 C 0,0 km/h
21.01.2017 07:00 -10,2 C 84 % 1035,0 hPa 0,0 l/m 0,0 km/h N -12,4 C -10,2 C 0,0 km/h
21.01.2017 08:00 -9,4 C 85 % 1035,4 hPa 0,0 l/m 0,0 km/h N -11,4 C -9,4 C 0,0 km/h
21.01.2017 09:00 -8,3 C 85 % 1035,9 hPa 0,0 l/m 0,0 km/h N -10,4 C -8,3 C 0,8 km/h
21.01.2017 10:00 -7,5 C 84 % 1035,6 hPa 0,0 l/m 0,3 km/h N -9,7 C -7,5 C 3,6 km/h
21.01.2017 11:00 -6,4 C 85 % 1034,8 hPa 0,0 l/m 0,3 km/h N -8,5 C -6,4 C 4,0 km/h
21.01.2017 12:00 -5,4 C 84 % 1034,3 hPa 0,0 l/m 0,2 km/h N -7,6 C -5,4 C 4,4 km/h
21.01.2017 13:00 -4,6 C 84 % 1034,0 hPa 0,0 l/m 0,2 km/h N -6,9 C -4,6 C 3,6 km/h
21.01.2017 14:00 -4,4 C 82 % 1033,8 hPa 0,0 l/m 0,1 km/h N -7,0 C -4,4 C 3,2 km/h
21.01.2017 15:00 -3,4 C 81 % 1033,7 hPa 0,0 l/m 0,0 km/h N -6,3 C -3,4 C 1,2 km/h
21.01.2017 16:00 -3,5 C 78 % 1033,7 hPa 0,0 l/m 0,0 km/h N -6,8 C -3,5 C 0,0 km/h
21.01.2017 17:00 -4,7 C 77 % 1033,7 hPa 0,0 l/m 0,0 km/h N -8,1 C -4,7 C 0,0 km/h
21.01.2017 18:00 -6,3 C 77 % 1033,8 hPa 0,0 l/m 0,0 km/h N -9,6 C -6,3 C 0,0 km/h
21.01.2017 19:00 -7,5 C 79 % 1033,8 hPa 0,0 l/m 0,0 km/h N -10,6 C -7,5 C 0,0 km/h
21.01.2017 20:00 -8,3 C 80 % 1033,8 hPa 0,0 l/m 0,0 km/h N -11,1 C -8,3 C 0,0 km/h
21.01.2017 21:00 -9,0 C 81 % 1034,1 hPa 0,0 l/m 0,0 km/h N -11,6 C -9,0 C 0,0 km/h
21.01.2017 22:00 -9,5 C 82 % 1034,2 hPa 0,0 l/m 0,0 km/h N -11,9 C -9,5 C 0,0 km/h
21.01.2017 23:00 -9,8 C 83 % 1034,3 hPa 0,0 l/m 0,0 km/h N -12,2 C -9,8 C 0,0 km/h
22.01.2017 00:00 -10,1 C 83 % 1034,1 hPa 0,0 l/m 0,0 km/h N -12,4 C -10,1 C 0,0 km/h
22.01.2017 01:00 -10,4 C 84 % 1033,9 hPa 0,0 l/m 0,0 km/h N -12,6 C -10,4 C 0,0 km/h
22.01.2017 02:00 -10,7 C 84 % 1033,9 hPa 0,0 l/m 0,0 km/h N -12,9 C -10,7 C 0,0 km/h
22.01.2017 03:00 -11,1 C 84 % 1033,9 hPa 0,0 l/m 0,0 km/h N -13,2 C -11,1 C 0,0 km/h
22.01.2017 04:00 -11,4 C 84 % 1033,9 hPa 0,0 l/m 0,0 km/h N -13,5 C -11,4 C 0,0 km/h
22.01.2017 05:00 -11,6 C 84 % 1033,9 hPa 0,0 l/m 0,0 km/h N -13,7 C -11,6 C 0,0 km/h
22.01.2017 06:00 -11,7 C 84 % 1033,9 hPa 0,0 l/m 0,0 km/h N -13,8 C -11,7 C 0,0 km/h
22.01.2017 07:00 -11,8 C 84 % 1033,9 hPa 0,0 l/m 0,0 km/h N -13,9 C -11,8 C 0,0 km/h
22.01.2017 08:00 -11,1 C 85 % 1033,9 hPa 0,0 l/m 0,0 km/h N -13,2 C -11,1 C 0,0 km/h
22.01.2017 09:00 -8,0 C 84 % 1033,8 hPa 0,0 l/m 0,3 km/h N -10,2 C -8,0 C 3,6 km/h
22.01.2017 10:00 -5,7 C 84 % 1033,8 hPa 0,0 l/m 0,5 km/h N -7,9 C -5,7 C 6,0 km/h
22.01.2017 11:00 -4,4 C 84 % 1033,4 hPa 0,0 l/m 0,3 km/h N -6,7 C -4,4 C 3,2 km/h
22.01.2017 12:00 -1,9 C 84 % 1032,4 hPa 0,0 l/m 0,2 km/h N -4,3 C -1,9 C 4,4 km/h
22.01.2017 13:00 0,7 C 75 % 1031,6 hPa 0,0 l/m 0,7 km/h N -3,2 C 0,7 C 6,8 km/h
22.01.2017 14:00 2,3 C 59 % 1031,2 hPa 0,0 l/m 1,6 km/h N -4,8 C 2,3 C 10,4 km/h
22.01.2017 15:00 1,8 C 56 % 1031,1 hPa 0,0 l/m 1,8 km/h N -6,0 C 1,8 C 8,9 km/h
22.01.2017 16:00 0,3 C 60 % 1031,1 hPa 0,0 l/m 1,4 km/h N -6,6 C 0,3 C 8,4 km/h
22.01.2017 17:00 -1,0 C 65 % 1031,1 hPa 0,0 l/m 1,3 km/h N -6,7 C -1,0 C 8,9 km/h
22.01.2017 18:00 -1,9 C 69 % 1031,0 hPa 0,0 l/m 0,7 km/h N -6,7 C -1,9 C 7,2 km/h
22.01.2017 19:00 -2,5 C 72 % 1030,8 hPa 0,0 l/m 0,4 km/h N -6,9 C -2,5 C 5,6 km/h
22.01.2017 20:00 -2,9 C 73 % 1030,4 hPa 0,0 l/m 0,8 km/h N -7,0 C -2,9 C 6,4 km/h
22.01.2017 21:00 -3,4 C 74 % 1030,2 hPa 0,0 l/m 0,5 km/h N -7,3 C -3,4 C 6,8 km/h
22.01.2017 22:00 -3,9 C 76 % 1029,9 hPa 0,0 l/m 0,2 km/h N -7,6 C -3,9 C 4,4 km/h
22.01.2017 23:00 -4,3 C 76 % 1029,6 hPa 0,0 l/m 0,1 km/h N -7,8 C -4,3 C 3,6 km/h
Min-Datum _ 20.01.17 22.01.17 16.01.17 - 16.01.17 - 20.01.17 20.01.17 16.01.17
_ Min-Zeit 07:45 15:00 00:45 - 01:00 - 07:45 07:45 02:30
Minimum _ -11,8 C 55 % 1020,4 hPa - 0,0 km/h - -14,1 C -11,8 C 0,0 km/h
Max-Datum _ 22.01.17 20.01.17 19.01.17 16.01.17 17.01.17 - 22.01.17 22.01.17 17.01.17
_ Max-Zeit 14:30 06:00 10:30 00:00 11:00 - 13:15 14:45 13:15
Maximum _ 2,4 C 92 % 1039,4 hPa 0,0 l/m 8,5 km/h
N
- -3,0 C 2,4 C 29,0 km/h
N
Durchschnitt _ -5,1 C 78 % 1033,0 hPa #0,0 l/m 1,9 km/h N -8,5 C -5,2 C 6,6 km/h